createdAt,value
2023-02-27T00:23:41.480Z,-4.78
2023-02-27T00:24:12.266Z,-4.78
2023-02-27T00:24:46.274Z,-4.78
2023-02-27T00:25:16.529Z,-4.78
2023-02-27T00:25:49.573Z,-4.78
2023-02-27T00:26:15.968Z,-4.78
2023-02-27T00:26:47.818Z,-4.78
2023-02-27T00:27:17.749Z,-4.78
2023-02-27T00:27:49.642Z,-4.78
2023-02-27T00:28:22.223Z,-4.88
2023-02-27T00:28:52.359Z,-4.88
2023-02-27T00:29:22.629Z,-4.88
2023-02-27T00:29:53.661Z,-4.88
2023-02-27T00:30:26.368Z,-4.88
2023-02-27T00:30:57.135Z,-4.88
2023-02-27T00:31:27.441Z,-4.88
2023-02-27T00:31:57.168Z,-4.88
2023-02-27T00:32:28.811Z,-4.88
2023-02-27T00:32:59.270Z,-4.88
2023-02-27T00:33:30.378Z,-4.88
2023-02-27T00:34:01.791Z,-4.88
2023-02-27T00:34:32.592Z,-4.88
2023-02-27T00:35:05.868Z,-4.88
2023-02-27T00:35:35.904Z,-4.98
2023-02-27T00:36:06.475Z,-4.84
2023-02-27T00:36:36.940Z,-4.84
2023-02-27T00:37:07.562Z,-4.84
2023-02-27T00:37:38.241Z,-4.84
2023-02-27T00:38:09.360Z,-4.84
2023-02-27T00:38:40.652Z,-4.84
2023-02-27T00:39:10.596Z,-4.84
2023-02-27T00:39:41.965Z,-4.74
2023-02-27T00:40:14.264Z,-4.74
2023-02-27T00:40:45.139Z,-4.64
2023-02-27T00:41:15.531Z,-4.64
2023-02-27T00:41:46.053Z,-4.55
2023-02-27T00:42:17.237Z,-4.55
2023-02-27T00:42:48.001Z,-4.55
2023-02-27T00:43:19.328Z,-4.55
2023-02-27T00:43:50.116Z,-4.64
2023-02-27T00:44:20.956Z,-4.64
2023-02-27T00:44:52.643Z,-4.64
2023-02-27T00:45:23.466Z,-4.64
2023-02-27T00:45:54.632Z,-4.64
2023-02-27T00:46:25.956Z,-4.64
2023-02-27T00:46:56.315Z,-4.74
2023-02-27T00:47:27.103Z,-4.74
2023-02-27T00:47:58.217Z,-4.74
2023-02-27T00:48:29.106Z,-4.74
2023-02-27T00:49:00.605Z,-4.74
2023-02-27T00:49:31.227Z,-4.61
2023-02-27T00:50:02.256Z,-4.61
2023-02-27T00:50:33.500Z,-4.61
2023-02-27T00:51:05.001Z,-4.61
2023-02-27T00:51:35.865Z,-4.61
2023-02-27T00:52:06.135Z,-4.61
2023-02-27T00:52:37.005Z,-4.61
2023-02-27T00:53:07.665Z,-4.71
2023-02-27T00:53:39.549Z,-4.71
2023-02-27T00:54:11.006Z,-4.71
2023-02-27T00:54:41.218Z,-4.71
2023-02-27T00:55:12.056Z,-4.71
2023-02-27T00:55:43.730Z,-4.71
2023-02-27T00:56:15.765Z,-4.56
2023-02-27T00:56:45.903Z,-4.56
2023-02-27T00:57:16.136Z,-4.71
2023-02-27T00:57:47.133Z,-4.56
2023-02-27T00:58:18.111Z,-4.46
2023-02-27T00:58:49.368Z,-4.46
2023-02-27T00:59:20.030Z,-4.46
2023-02-27T00:59:51.439Z,-4.46
2023-02-27T01:00:55.286Z,-4.46
2023-02-27T01:01:23.601Z,-4.46
2023-02-27T01:01:55.492Z,-4.56
2023-02-27T01:02:27.123Z,-4.56
2023-02-27T01:02:57.754Z,-4.56
2023-02-27T01:03:29.204Z,-4.56
2023-02-27T01:03:59.276Z,-4.66
2023-02-27T01:04:30.849Z,-4.66
2023-02-27T01:05:19.100Z,-4.66
2023-02-27T01:05:31.803Z,-4.66
2023-02-27T01:06:03.367Z,-4.66
2023-02-27T01:06:33.967Z,-4.66
2023-02-27T01:07:05.339Z,-4.76
2023-02-27T01:07:37.264Z,-4.76
2023-02-27T01:08:22.609Z,-4.76
2023-02-27T01:10:28.523Z,-4.76
2023-02-27T01:10:45.007Z,-4.76
2023-02-27T01:11:15.111Z,-4.76
2023-02-27T01:11:56.176Z,-4.62
2023-02-27T01:12:30.142Z,-4.62
2023-02-27T01:12:46.648Z,-4.62
2023-02-27T01:13:17.536Z,-4.62
2023-02-27T01:13:51.583Z,-4.62
2023-02-27T01:14:20.487Z,-4.62
2023-02-27T01:14:51.329Z,-4.62
2023-02-27T01:15:23.875Z,-4.62
2023-02-27T01:16:10.256Z,-4.62
2023-02-27T01:16:23.524Z,-4.62
2023-02-27T01:16:58.366Z,-4.62
2023-02-27T01:17:25.631Z,-4.62
2023-02-27T01:17:56.353Z,-4.62
2023-02-27T01:18:28.037Z,-4.62
2023-02-27T01:18:59.717Z,-4.62
2023-02-27T01:19:30.354Z,-4.62
2023-02-27T01:20:01.357Z,-4.62
2023-02-27T01:20:32.196Z,-4.62
2023-02-27T01:21:02.983Z,-4.62
2023-02-27T01:21:33.787Z,-4.62
2023-02-27T01:22:04.459Z,-4.62
2023-02-27T01:22:35.029Z,-4.72
2023-02-27T01:23:07.619Z,-4.72
2023-02-27T01:23:37.897Z,-4.72
2023-02-27T01:24:09.452Z,-4.72
2023-02-27T01:24:40.277Z,-4.72
2023-02-27T01:25:11.459Z,-4.58
2023-02-27T01:25:42.386Z,-4.48
2023-02-27T01:26:30.798Z,-4.48
2023-02-27T01:26:43.558Z,-4.48
2023-02-27T01:27:14.243Z,-4.48
2023-02-27T01:27:46.039Z,-4.48
2023-02-27T01:28:16.757Z,-4.48
2023-02-27T01:28:48.157Z,-4.48
2023-02-27T01:29:25.333Z,-4.62
2023-02-27T01:29:51.574Z,-4.48
2023-02-27T01:30:26.039Z,-4.48
2023-02-27T01:31:28.775Z,-4.72
2023-02-27T01:31:59.546Z,-4.72
2023-02-27T01:32:25.168Z,-4.58
2023-02-27T01:32:56.103Z,-4.58
2023-02-27T01:33:26.658Z,-4.72
2023-02-27T01:34:02.411Z,-4.68
2023-02-27T01:34:29.674Z,-4.68
2023-02-27T01:35:35.921Z,-4.68
2023-02-27T01:36:02.308Z,-4.68
2023-02-27T01:36:33.369Z,-4.68
2023-02-27T01:37:03.813Z,-4.68
2023-02-27T01:37:34.543Z,-4.68
2023-02-27T01:39:16.483Z,-4.68
2023-02-27T01:39:39.424Z,-4.78
2023-02-27T01:40:12.787Z,-4.78
2023-02-27T01:40:41.475Z,-4.78
2023-02-27T01:41:12.140Z,-4.78
2023-02-27T01:41:42.623Z,-4.78
2023-02-27T01:42:13.274Z,-4.78
2023-02-27T01:42:45.584Z,-4.78
2023-02-27T01:43:15.847Z,-4.78
2023-02-27T01:43:46.518Z,-4.78
2023-02-27T01:44:17.947Z,-4.78
2023-02-27T01:44:50.095Z,-4.78
2023-02-27T01:45:21.623Z,-4.78
2023-02-27T01:45:51.736Z,-4.78
2023-02-27T01:46:23.014Z,-4.78
2023-02-27T01:47:10.285Z,-4.78
2023-02-27T01:47:23.590Z,-4.78
2023-02-27T01:47:54.972Z,-4.78
2023-02-27T01:48:25.428Z,-4.88
2023-02-27T01:48:56.328Z,-4.88
2023-02-27T01:49:28.228Z,-4.88
2023-02-27T01:49:59.906Z,-4.88
2023-02-27T01:50:31.357Z,-4.88
2023-02-27T01:51:01.856Z,-4.88
2023-02-27T01:51:32.288Z,-4.98
2023-02-27T01:52:02.755Z,-4.98
2023-02-27T01:52:33.342Z,-4.98
2023-02-27T01:53:35.785Z,-4.98
2023-02-27T01:54:06.361Z,-4.98
2023-02-27T01:54:38.276Z,-4.98
2023-02-27T01:55:09.311Z,-4.98
2023-02-27T01:55:40.142Z,-4.98
2023-02-27T01:56:11.597Z,-4.98
2023-02-27T01:56:42.185Z,-4.98
2023-02-27T01:57:12.505Z,-4.98
2023-02-27T01:57:44.871Z,-4.88
2023-02-27T01:58:14.356Z,-4.88
2023-02-27T01:59:04.175Z,-4.75
2023-02-27T01:59:18.307Z,-4.75
2023-02-27T01:59:49.052Z,-4.75
2023-02-27T02:00:22.205Z,-4.88
2023-02-27T02:00:52.274Z,-4.88
2023-02-27T02:01:21.169Z,-4.78
2023-02-27T02:01:55.055Z,-4.78
2023-02-27T02:02:42.886Z,-4.88
2023-02-27T02:03:09.702Z,-4.88
2023-02-27T02:03:40.639Z,-4.88
2023-02-27T02:04:13.988Z,-4.88
2023-02-27T02:08:48.054Z,-4.88
2023-02-27T02:09:08.704Z,-4.78
2023-02-27T02:09:22.952Z,-4.78
2023-02-27T02:09:55.585Z,-4.68
2023-02-27T02:10:23.211Z,-4.68
2023-02-27T02:10:53.861Z,-4.68
2023-02-27T02:11:58.581Z,-4.72
2023-02-27T02:12:28.318Z,-4.72
2023-02-27T02:12:59.385Z,-4.72
2023-02-27T02:13:33.092Z,-4.72
2023-02-27T02:14:00.823Z,-4.72
2023-02-27T02:14:32.393Z,-4.72
2023-02-27T02:15:04.734Z,-4.72
2023-02-27T02:15:32.635Z,-4.72
2023-02-27T02:16:04.026Z,-4.62
2023-02-27T02:16:34.474Z,-4.62
2023-02-27T02:17:10.037Z,-4.62
2023-02-27T02:17:37.623Z,-4.62
2023-02-27T02:18:08.735Z,-4.62
2023-02-27T02:18:39.934Z,-4.62
2023-02-27T02:19:10.658Z,-4.62
2023-02-27T02:19:41.386Z,-4.62
2023-02-27T02:20:14.782Z,-4.76
2023-02-27T02:20:42.708Z,-4.86
2023-02-27T02:21:13.583Z,-4.86
2023-02-27T02:21:45.348Z,-4.86
2023-02-27T02:22:16.975Z,-4.86
2023-02-27T02:23:18.721Z,-4.86
2023-02-27T02:23:49.803Z,-4.86
2023-02-27T02:24:21.018Z,-4.86
2023-02-27T02:24:52.820Z,-4.86
2023-02-27T02:25:24.861Z,-4.95
2023-02-27T02:25:55.271Z,-4.95
2023-02-27T02:26:25.018Z,-4.86
2023-02-27T02:26:55.452Z,-4.95
2023-02-27T02:27:27.091Z,-4.95
2023-02-27T02:27:58.143Z,-4.95
2023-02-27T02:28:29.851Z,-4.95
2023-02-27T02:29:01.829Z,-4.95
2023-02-27T02:29:31.775Z,-4.95
2023-02-27T02:30:04.008Z,-4.95
2023-02-27T02:30:33.896Z,-4.95
2023-02-27T02:31:13.303Z,-4.95
2023-02-27T02:31:37.429Z,-4.82
2023-02-27T02:32:07.460Z,-4.82
2023-02-27T02:32:37.515Z,-4.82
2023-02-27T02:33:09.076Z,-4.82
2023-02-27T02:33:39.757Z,-4.72
2023-02-27T02:34:11.465Z,-4.86
2023-02-27T02:34:41.601Z,-4.72
2023-02-27T02:35:24.567Z,-4.86
2023-02-27T02:35:53.146Z,-4.95
2023-02-27T02:36:14.178Z,-4.82
2023-02-27T02:36:47.602Z,-4.82
2023-02-27T02:37:16.502Z,-4.82
2023-02-27T02:37:47.723Z,-4.82
2023-02-27T02:40:21.333Z,-4.82
2023-02-27T02:41:24.306Z,-4.86
2023-02-27T02:41:55.846Z,-4.86
2023-02-27T02:42:25.837Z,-4.86
2023-02-27T02:42:57.342Z,-4.86
2023-02-27T02:43:28.646Z,-4.86
2023-02-27T02:43:59.092Z,-4.86
2023-02-27T02:44:31.018Z,-4.86
2023-02-27T02:45:03.114Z,-4.86
2023-02-27T02:45:33.628Z,-4.86
2023-02-27T02:46:03.739Z,-4.86
2023-02-27T02:46:34.708Z,-4.86
2023-02-27T02:47:04.821Z,-4.86
2023-02-27T02:47:37.081Z,-4.95
2023-02-27T02:48:07.156Z,-4.95
2023-02-27T02:48:38.534Z,-4.95
2023-02-27T02:49:11.940Z,-4.95
2023-02-27T02:49:40.468Z,-4.95
2023-02-27T02:50:11.796Z,-4.95
2023-02-27T02:50:42.656Z,-4.95
2023-02-27T02:51:44.463Z,-4.95
2023-02-27T02:52:15.223Z,-5.05
2023-02-27T02:52:46.718Z,-5.05
2023-02-27T02:53:17.891Z,-5.05
2023-02-27T02:53:48.656Z,-5.05
2023-02-27T02:54:18.994Z,-5.05
2023-02-27T02:54:50.901Z,-5.05
2023-02-27T02:55:21.720Z,-4.95
2023-02-27T02:55:52.146Z,-4.95
2023-02-27T02:56:23.770Z,-5.05
2023-02-27T02:56:55.228Z,-5.05
2023-02-27T02:57:25.663Z,-5.05
2023-02-27T02:57:56.427Z,-5.05
2023-02-27T02:58:27.752Z,-5.05
2023-02-27T02:58:58.477Z,-5.05
2023-02-27T02:59:28.832Z,-5.15
2023-02-27T03:00:35.365Z,-5.15
2023-02-27T03:02:31.922Z,-5.25
2023-02-27T03:02:36.645Z,-5.25
2023-02-27T03:04:30.815Z,-5.35
2023-02-27T03:04:49.474Z,-5.35
2023-02-27T03:05:17.228Z,-5.45
2023-02-27T03:05:42.095Z,-5.45
2023-02-27T03:06:13.889Z,-5.32
2023-02-27T03:06:44.203Z,-5.41
2023-02-27T03:07:15.365Z,-5.41
2023-02-27T03:07:45.732Z,-5.41
2023-02-27T03:08:16.368Z,-5.41
2023-02-27T03:08:48.657Z,-5.41
2023-02-27T03:09:31.152Z,-5.41
2023-02-27T03:09:53.999Z,-5.41
2023-02-27T03:10:21.147Z,-5.41
2023-02-27T03:10:51.461Z,-5.41
2023-02-27T03:11:22.252Z,-5.41
2023-02-27T03:11:53.392Z,-5.41
2023-02-27T03:12:24.203Z,-5.41
2023-02-27T03:12:55.428Z,-5.41
2023-02-27T03:13:25.991Z,-5.41
2023-02-27T03:13:56.980Z,-5.38
2023-02-27T03:14:28.265Z,-5.51
2023-02-27T03:14:59.396Z,-5.38
2023-02-27T03:15:32.340Z,-5.38
2023-02-27T03:16:01.530Z,-5.38
2023-02-27T03:16:32.769Z,-5.38
2023-02-27T03:17:03.454Z,-5.38
2023-02-27T03:17:34.096Z,-5.38
2023-02-27T03:18:04.946Z,-5.38
2023-02-27T03:18:36.445Z,-5.48
2023-02-27T03:19:07.727Z,-5.48
2023-02-27T03:19:38.146Z,-5.48
2023-02-27T03:20:09.424Z,-5.48
2023-02-27T03:20:39.824Z,-5.48
2023-02-27T03:21:11.288Z,-5.58
2023-02-27T03:21:42.672Z,-5.58
2023-02-27T03:22:13.448Z,-5.58
2023-02-27T03:22:45.411Z,-5.58
2023-02-27T03:23:14.884Z,-5.58
2023-02-27T03:23:45.682Z,-5.58
2023-02-27T03:24:16.701Z,-5.58
2023-02-27T03:24:48.662Z,-5.68
2023-02-27T03:25:19.679Z,-5.68
2023-02-27T03:25:50.927Z,-5.68
2023-02-27T03:26:21.825Z,-5.68
2023-02-27T03:26:52.310Z,-5.68
2023-02-27T03:27:23.555Z,-5.68
2023-02-27T03:27:54.484Z,-5.68
2023-02-27T03:28:25.593Z,-5.68
2023-02-27T03:28:55.916Z,-5.68
2023-02-27T03:29:27.841Z,-5.78
2023-02-27T03:29:58.219Z,-5.78
2023-02-27T03:30:31.352Z,-5.78
2023-02-27T03:31:00.357Z,-5.78
2023-02-27T03:31:32.505Z,-5.78
2023-02-27T03:32:03.134Z,-5.65
2023-02-27T03:32:34.037Z,-5.65
2023-02-27T03:33:05.324Z,-5.65
2023-02-27T03:33:36.388Z,-5.65
2023-02-27T03:34:07.319Z,-5.65
2023-02-27T03:34:37.503Z,-5.65
2023-02-27T03:35:08.582Z,-5.75
2023-02-27T03:36:10.118Z,-5.75
2023-02-27T03:36:41.921Z,-5.75
2023-02-27T03:37:12.706Z,-5.85
2023-02-27T03:37:42.716Z,-5.85
2023-02-27T03:38:14.629Z,-5.85
2023-02-27T03:38:45.231Z,-5.95
2023-02-27T03:39:16.542Z,-5.95
2023-02-27T03:39:47.259Z,-5.95
2023-02-27T03:40:18.655Z,-5.95
2023-02-27T03:40:49.176Z,-6.05
2023-02-27T03:41:51.622Z,-6.05
2023-02-27T03:42:23.991Z,-6.05
2023-02-27T03:42:53.499Z,-6.05
2023-02-27T03:43:24.148Z,-6.05
2023-02-27T03:43:54.849Z,-6.15
2023-02-27T03:44:26.568Z,-6.15
2023-02-27T03:44:56.971Z,-6.15
2023-02-27T03:45:28.666Z,-6.15
2023-02-27T03:46:17.230Z,-6.15
2023-02-27T03:46:30.448Z,-6.15
2023-02-27T03:47:01.155Z,-6.25
2023-02-27T03:47:32.566Z,-6.25
2023-02-27T03:48:04.382Z,-6.25
2023-02-27T03:48:33.921Z,-6.25
2023-02-27T03:49:05.446Z,-6.25
2023-02-27T03:49:35.994Z,-6.35
2023-02-27T03:50:07.525Z,-6.35
2023-02-27T03:50:38.008Z,-6.35
2023-02-27T03:51:09.004Z,-6.35
2023-02-27T03:51:42.078Z,-6.21
2023-02-27T03:52:11.642Z,-6.21
2023-02-27T03:52:42.667Z,-6.21
2023-02-27T03:53:13.673Z,-6.11
2023-02-27T03:53:43.845Z,-6.11
2023-02-27T03:54:15.440Z,-6.11
2023-02-27T03:55:03.765Z,-6.21
2023-02-27T03:55:18.547Z,-6.21
2023-02-27T03:55:48.764Z,-6.21
2023-02-27T03:56:19.388Z,-6.21
2023-02-27T03:56:50.893Z,-6.21
2023-02-27T03:57:22.085Z,-6.21
2023-02-27T03:57:52.897Z,-6.21
2023-02-27T03:58:24.167Z,-6.21
2023-02-27T03:58:54.723Z,-6.21
2023-02-27T03:59:25.749Z,-6.21
2023-02-27T03:59:56.645Z,-6.11
2023-02-27T04:00:59.240Z,-6.01
2023-02-27T04:01:30.543Z,-6.01
2023-02-27T04:02:00.236Z,-6.01
2023-02-27T04:02:31.526Z,-6.01
2023-02-27T04:03:03.220Z,-6.01
2023-02-27T04:03:34.784Z,-5.91
2023-02-27T04:04:05.919Z,-5.91
2023-02-27T04:04:36.439Z,-5.91
2023-02-27T04:05:07.219Z,-5.91
2023-02-27T04:05:39.207Z,-5.82
2023-02-27T04:06:07.829Z,-5.82
2023-02-27T04:06:40.671Z,-5.82
2023-02-27T04:07:09.678Z,-5.82
2023-02-27T04:07:41.716Z,-5.82
2023-02-27T04:08:12.596Z,-5.82
2023-02-27T04:08:43.357Z,-5.72
2023-02-27T04:09:14.977Z,-5.72
2023-02-27T04:09:45.545Z,-5.72
2023-02-27T04:10:17.520Z,-5.62
2023-02-27T04:10:47.997Z,-5.62
2023-02-27T04:11:19.038Z,-5.62
2023-02-27T04:11:50.434Z,-5.62
2023-02-27T04:12:22.648Z,-5.62
2023-02-27T04:12:51.664Z,-5.62
2023-02-27T04:13:23.749Z,-5.62
2023-02-27T04:13:54.004Z,-5.52
2023-02-27T04:14:24.329Z,-5.52
2023-02-27T04:14:55.889Z,-5.52
2023-02-27T04:15:26.279Z,-5.42
2023-02-27T04:15:57.688Z,-5.42
2023-02-27T04:16:28.120Z,-5.42
2023-02-27T04:17:31.174Z,-5.32
2023-02-27T04:18:01.558Z,-5.32
2023-02-27T04:18:32.991Z,-5.32
2023-02-27T04:19:04.622Z,-5.22
2023-02-27T04:19:35.106Z,-5.22
2023-02-27T04:20:06.884Z,-5.12
2023-02-27T04:20:37.179Z,-5.12
2023-02-27T04:21:07.975Z,-5.12
2023-02-27T04:21:38.513Z,-5.12
2023-02-27T04:22:08.871Z,-5.02
2023-02-27T04:22:41.358Z,-5.02
2023-02-27T04:23:12.266Z,-5.02
2023-02-27T04:23:43.135Z,-4.92
2023-02-27T04:24:13.274Z,-4.92
2023-02-27T04:24:44.578Z,-4.82
2023-02-27T04:25:16.278Z,-4.82
2023-02-27T04:25:46.688Z,-4.82
2023-02-27T04:26:48.490Z,-4.82
2023-02-27T04:27:19.394Z,-4.72
2023-02-27T04:27:50.354Z,-4.72
2023-02-27T04:28:22.845Z,-4.72
2023-02-27T04:28:52.717Z,-4.62
2023-02-27T04:29:24.018Z,-4.62
2023-02-27T04:29:54.308Z,-4.52
2023-02-27T04:30:29.776Z,-4.52
2023-02-27T04:30:56.585Z,-4.42
2023-02-27T04:31:27.986Z,-4.42
2023-02-27T04:31:58.752Z,-4.42
2023-02-27T04:32:29.038Z,-4.42
2023-02-27T04:33:00.389Z,-4.32
2023-02-27T04:33:31.485Z,-4.32
2023-02-27T04:34:03.577Z,-4.32
2023-02-27T04:34:34.963Z,-4.32
2023-02-27T04:35:36.173Z,-4.32
2023-02-27T04:36:07.713Z,-4.22
2023-02-27T04:36:37.931Z,-4.22
2023-02-27T04:37:08.695Z,-4.22
2023-02-27T04:37:39.109Z,-4.22
2023-02-27T04:38:10.136Z,-4.22
2023-02-27T04:38:41.807Z,-4.12
2023-02-27T04:39:12.585Z,-4.12
2023-02-27T04:39:44.062Z,-4.12
2023-02-27T04:40:14.975Z,-4.02
2023-02-27T04:40:45.708Z,-4.02
2023-02-27T04:41:15.695Z,-4.02
2023-02-27T04:41:47.011Z,-4.02
2023-02-27T04:42:18.177Z,-3.92
2023-02-27T04:42:48.955Z,-3.92
2023-02-27T04:43:20.177Z,-3.92
2023-02-27T04:43:51.419Z,-3.96
2023-02-27T04:44:53.591Z,-3.96
2023-02-27T04:45:44.510Z,-3.86
2023-02-27T04:45:55.383Z,-3.86
2023-02-27T04:46:26.868Z,-3.98
2023-02-27T04:47:14.753Z,-3.88
2023-02-27T04:47:27.919Z,-4.02
2023-02-27T04:48:30.468Z,-3.92
2023-02-27T04:49:02.800Z,-3.92
2023-02-27T04:49:34.928Z,-3.82
2023-02-27T04:50:04.286Z,-3.82
2023-02-27T04:50:35.547Z,-3.82
2023-02-27T04:51:05.956Z,-3.82
2023-02-27T04:51:35.785Z,-3.72
2023-02-27T04:52:06.573Z,-3.86
2023-02-27T04:52:38.720Z,-3.86
2023-02-27T04:53:09.272Z,-3.86
2023-02-27T04:53:41.160Z,-3.86
2023-02-27T04:54:12.049Z,-3.76
2023-02-27T04:54:41.509Z,-3.76
2023-02-27T04:55:13.826Z,-3.76
2023-02-27T04:55:44.281Z,-3.76
2023-02-27T04:56:15.227Z,-3.76
2023-02-27T04:56:45.354Z,-3.76
2023-02-27T04:57:16.810Z,-3.76
2023-02-27T04:57:47.484Z,-3.76
2023-02-27T04:58:18.274Z,-3.76
2023-02-27T04:58:49.241Z,-3.76
2023-02-27T04:59:20.449Z,-3.81
2023-02-27T04:59:51.404Z,-3.81
2023-02-27T05:00:22.901Z,-3.81
2023-02-27T05:00:53.478Z,-3.81
2023-02-27T05:01:24.238Z,-3.81
2023-02-27T05:01:55.204Z,-3.95
2023-02-27T05:02:27.188Z,-3.95
2023-02-27T05:02:58.600Z,-3.95
2023-02-27T05:03:28.910Z,-3.71
2023-02-27T05:04:01.193Z,-3.71
2023-02-27T05:04:31.268Z,-3.71
2023-02-27T05:05:32.928Z,-3.71
2023-02-27T05:06:04.219Z,-3.71
2023-02-27T05:07:05.486Z,-3.85
2023-02-27T05:07:35.920Z,-3.85
2023-02-27T05:08:08.051Z,-3.85
2023-02-27T05:08:40.341Z,-3.85
2023-02-27T05:09:11.500Z,-3.85
2023-02-27T05:09:41.753Z,-3.85
2023-02-27T05:10:12.564Z,-3.85
2023-02-27T05:10:43.522Z,-3.85
2023-02-27T05:11:13.013Z,-3.75
2023-02-27T05:11:43.660Z,-3.75
2023-02-27T05:12:15.014Z,-3.75
2023-02-27T05:12:45.765Z,-3.75
2023-02-27T05:13:18.687Z,-3.75
2023-02-27T05:13:48.833Z,-3.75
2023-02-27T05:14:20.259Z,-3.75
2023-02-27T05:14:51.390Z,-3.75
2023-02-27T05:15:23.422Z,-3.75
2023-02-27T05:15:53.059Z,-3.89
2023-02-27T05:16:23.321Z,-3.89
2023-02-27T05:16:53.892Z,-3.89
2023-02-27T05:17:25.169Z,-3.89
2023-02-27T05:18:07.742Z,-3.89
2023-02-27T05:18:27.734Z,-3.79
2023-02-27T05:18:57.750Z,-3.65
2023-02-27T05:19:29.791Z,-3.65
2023-02-27T05:20:01.824Z,-3.65
2023-02-27T05:20:32.889Z,-3.65
2023-02-27T05:21:03.694Z,-3.65
2023-02-27T05:21:33.072Z,-3.65
2023-02-27T05:22:04.288Z,-3.65
2023-02-27T05:22:35.690Z,-3.65
2023-02-27T05:23:07.339Z,-3.65
2023-02-27T05:23:37.716Z,-3.65
2023-02-27T05:24:08.441Z,-3.65
2023-02-27T05:24:41.135Z,-3.65
2023-02-27T05:25:12.869Z,-3.65
2023-02-27T05:26:13.917Z,-3.65
2023-02-27T05:26:43.599Z,-3.65
2023-02-27T05:27:13.888Z,-3.79
2023-02-27T05:28:02.693Z,-3.79
2023-02-27T05:28:16.755Z,-3.79
2023-02-27T05:28:48.143Z,-3.79
2023-02-27T05:29:18.862Z,-3.79
2023-02-27T05:29:50.169Z,-3.79
2023-02-27T05:30:22.132Z,-3.79
2023-02-27T05:30:52.212Z,-3.84
2023-02-27T05:31:22.883Z,-3.84
2023-02-27T05:31:53.095Z,-3.84
2023-02-27T05:32:24.649Z,-3.84
2023-02-27T05:33:27.147Z,-3.84
2023-02-27T05:33:58.613Z,-3.84
2023-02-27T05:34:28.929Z,-3.84
2023-02-27T05:35:00.142Z,-3.84
2023-02-27T05:35:31.852Z,-3.75
2023-02-27T05:36:02.624Z,-3.75
2023-02-27T05:36:32.988Z,-3.75
2023-02-27T05:37:03.410Z,-3.75
2023-02-27T05:37:34.297Z,-3.75
2023-02-27T05:38:05.331Z,-3.75
2023-02-27T05:38:36.708Z,-3.75
2023-02-27T05:39:07.285Z,-3.75
2023-02-27T05:39:38.381Z,-3.75
2023-02-27T05:40:10.687Z,-3.75
2023-02-27T05:40:41.628Z,-3.75
2023-02-27T05:41:11.807Z,-3.75
2023-02-27T05:41:42.199Z,-3.75
2023-02-27T05:42:12.941Z,-3.75
2023-02-27T05:42:44.095Z,-3.75
2023-02-27T05:43:15.067Z,-3.90
2023-02-27T05:43:47.031Z,-3.90
2023-02-27T05:44:19.084Z,-3.90
2023-02-27T05:44:49.687Z,-3.90
2023-02-27T05:45:21.176Z,-4.04
2023-02-27T05:45:51.949Z,-4.04
2023-02-27T05:46:21.756Z,-3.90
2023-02-27T05:46:52.570Z,-3.90
2023-02-27T05:47:23.395Z,-3.80
2023-02-27T05:47:54.366Z,-3.80
2023-02-27T05:48:25.346Z,-3.80
2023-02-27T05:48:56.184Z,-3.80
2023-02-27T05:49:28.154Z,-3.80
2023-02-27T05:49:59.344Z,-3.80
2023-02-27T05:50:30.185Z,-3.80
2023-02-27T05:51:00.729Z,-3.80
2023-02-27T05:51:32.345Z,-3.80
2023-02-27T05:52:02.866Z,-3.80
2023-02-27T05:52:33.239Z,-3.80
2023-02-27T05:53:04.570Z,-3.65
2023-02-27T05:53:35.906Z,-3.80
2023-02-27T05:54:06.419Z,-3.80
2023-02-27T05:54:38.326Z,-3.80
2023-02-27T05:55:09.607Z,-3.80
2023-02-27T05:55:40.661Z,-3.80
2023-02-27T05:56:10.927Z,-3.80
2023-02-27T05:56:42.387Z,-3.80
2023-02-27T05:57:12.535Z,-3.80
2023-02-27T05:58:14.344Z,-3.80
2023-02-27T05:58:45.223Z,-3.80
2023-02-27T05:59:16.256Z,-3.80
2023-02-27T05:59:48.690Z,-3.80
2023-02-27T06:00:19.955Z,-3.80
2023-02-27T06:00:50.007Z,-3.80
2023-02-27T06:01:21.228Z,-3.80
2023-02-27T06:01:52.129Z,-3.80
2023-02-27T06:02:56.988Z,-3.80
2023-02-27T06:03:24.166Z,-3.80
2023-02-27T06:03:55.313Z,-3.80
2023-02-27T06:04:26.561Z,-3.80
2023-02-27T06:04:58.054Z,-3.80
2023-02-27T06:05:29.171Z,-3.80
2023-02-27T06:05:59.867Z,-3.80
2023-02-27T06:06:30.917Z,-3.80
2023-02-27T06:07:01.729Z,-3.80
2023-02-27T06:07:31.912Z,-3.80
2023-02-27T06:08:14.725Z,-3.80
2023-02-27T06:08:54.144Z,-3.80
2023-02-27T06:09:06.204Z,-3.80
2023-02-27T06:09:39.069Z,-3.80
2023-02-27T06:10:08.907Z,-3.80
2023-02-27T06:10:56.307Z,-3.80
2023-02-27T06:11:10.764Z,-3.80
2023-02-27T06:12:12.394Z,-3.80
2023-02-27T06:12:43.491Z,-3.70
2023-02-27T06:13:13.420Z,-3.70
2023-02-27T06:13:45.754Z,-3.55
2023-02-27T06:14:40.226Z,-3.70
2023-02-27T06:14:46.894Z,-3.70
2023-02-27T06:15:22.849Z,-3.70
2023-02-27T06:15:49.924Z,-3.70
2023-02-27T06:16:21.828Z,-3.70
2023-02-27T06:16:51.600Z,-3.70
2023-02-27T06:17:22.210Z,-3.70
2023-02-27T06:17:52.680Z,-3.70
2023-02-27T06:18:25.876Z,-3.70
2023-02-27T06:18:56.277Z,-3.84
2023-02-27T06:19:25.649Z,-3.84
2023-02-27T06:19:57.506Z,-3.84
2023-02-27T06:20:32.172Z,-3.84
2023-02-27T06:21:12.191Z,-3.84
2023-02-27T06:21:30.722Z,-3.84
2023-02-27T06:22:02.360Z,-3.84
2023-02-27T06:22:32.277Z,-3.84
2023-02-27T06:23:08.565Z,-3.94
2023-02-27T06:23:34.440Z,-3.94
2023-02-27T06:24:04.853Z,-3.94
2023-02-27T06:24:35.565Z,-3.80
2023-02-27T06:25:32.585Z,-3.80
2023-02-27T06:25:38.115Z,-3.80
2023-02-27T06:26:11.046Z,-3.80
2023-02-27T06:26:48.788Z,-3.80
2023-02-27T06:27:11.285Z,-3.80
2023-02-27T06:27:43.109Z,-3.80
2023-02-27T06:28:13.066Z,-3.80
2023-02-27T06:28:43.161Z,-3.80
2023-02-27T06:29:14.290Z,-3.65
2023-02-27T06:30:06.866Z,-3.65
2023-02-27T06:30:46.458Z,-3.65
2023-02-27T06:31:19.483Z,-3.65
2023-02-27T06:31:50.947Z,-3.90
2023-02-27T06:32:20.799Z,-3.90
2023-02-27T06:32:55.001Z,-3.90
2023-02-27T06:33:24.130Z,-3.90
2023-02-27T06:33:55.658Z,-3.75
2023-02-27T06:34:24.766Z,-3.75
2023-02-27T06:35:03.670Z,-3.75
2023-02-27T06:35:34.975Z,-3.75
2023-02-27T06:35:57.600Z,-3.75
2023-02-27T06:36:30.828Z,-3.75
2023-02-27T06:37:02.664Z,-3.75
2023-02-27T06:37:31.304Z,-3.75
2023-02-27T06:38:06.013Z,-3.75
2023-02-27T06:39:05.664Z,-3.75
2023-02-27T06:39:34.287Z,-3.90
2023-02-27T06:40:09.241Z,-3.90
2023-02-27T06:40:53.468Z,-3.90
2023-02-27T06:41:08.550Z,-3.90
2023-02-27T06:42:08.135Z,-3.90
2023-02-27T06:42:42.889Z,-3.80
2023-02-27T06:43:12.532Z,-3.80
2023-02-27T06:43:43.076Z,-3.80
2023-02-27T06:44:15.403Z,-3.80
2023-02-27T06:44:44.290Z,-3.80
2023-02-27T06:45:15.734Z,-3.80
2023-02-27T06:45:49.440Z,-3.80
2023-02-27T06:46:18.071Z,-3.80
2023-02-27T06:46:53.709Z,-3.80
2023-02-27T06:47:20.539Z,-3.70
2023-02-27T06:47:51.398Z,-3.70
2023-02-27T06:48:42.446Z,-3.70
2023-02-27T06:48:57.300Z,-3.55
2023-02-27T06:49:28.517Z,-3.70
2023-02-27T06:49:54.948Z,-3.70
2023-02-27T06:50:31.553Z,-3.70
2023-02-27T06:50:56.463Z,-3.70
2023-02-27T06:51:39.545Z,-3.70
2023-02-27T06:52:11.442Z,-3.70
2023-02-27T06:52:30.363Z,-3.60
2023-02-27T06:53:01.775Z,-3.60
2023-02-27T06:53:32.127Z,-3.74
2023-02-27T06:54:14.290Z,-3.74
2023-02-27T06:54:33.270Z,-3.74
2023-02-27T06:55:04.697Z,-3.74
2023-02-27T06:56:37.504Z,-3.74
2023-02-27T06:57:40.260Z,-3.50
2023-02-27T06:58:11.123Z,-3.50
2023-02-27T07:03:29.948Z,-3.50
2023-02-27T07:06:20.790Z,-3.69
2023-02-27T07:08:18.617Z,-3.75
2023-02-27T07:08:31.488Z,-3.65
2023-02-27T07:09:06.497Z,-3.65
2023-02-27T07:09:33.325Z,-3.65
2023-02-27T07:10:35.553Z,-3.65
2023-02-27T07:11:05.718Z,-3.65
2023-02-27T07:11:39.320Z,-3.55
2023-02-27T07:12:08.537Z,-3.55
2023-02-27T07:12:40.068Z,-3.55
2023-02-27T07:13:11.139Z,-3.45
2023-02-27T07:13:41.695Z,-3.60
2023-02-27T07:14:13.253Z,-3.60
2023-02-27T07:14:43.458Z,-3.60
2023-02-27T07:15:14.562Z,-3.50
2023-02-27T07:15:44.876Z,-3.50
2023-02-27T07:16:15.923Z,-3.41
2023-02-27T07:16:46.556Z,-3.41
2023-02-27T07:17:17.506Z,-3.41
2023-02-27T07:17:49.072Z,-3.31
2023-02-27T07:18:20.687Z,-3.31
2023-02-27T07:18:51.982Z,-3.21
2023-02-27T07:19:23.449Z,-3.36
2023-02-27T07:19:53.507Z,-3.43
2023-02-27T07:20:24.123Z,-3.33
2023-02-27T07:20:54.891Z,-3.23
2023-02-27T07:21:25.591Z,-3.13
2023-02-27T07:21:56.291Z,-3.04
2023-02-27T07:22:27.268Z,-3.10
2023-02-27T07:22:59.684Z,-3.16
2023-02-27T07:23:31.862Z,-3.16
2023-02-27T07:24:01.955Z,-3.16
2023-02-27T07:24:32.527Z,-3.16
2023-02-27T07:25:03.567Z,-3.06
2023-02-27T07:25:33.825Z,-2.96
2023-02-27T07:26:04.969Z,-2.86
2023-02-27T07:26:35.575Z,-2.86
2023-02-27T07:27:06.656Z,-2.83
2023-02-27T07:27:37.610Z,-2.90
2023-02-27T07:28:26.076Z,-2.90
2023-02-27T07:28:41.210Z,-2.90
2023-02-27T07:29:12.098Z,-2.80
2023-02-27T07:29:42.618Z,-2.80
2023-02-27T07:30:14.076Z,-2.71
2023-02-27T07:30:43.769Z,-2.87
2023-02-27T07:31:15.299Z,-2.68
2023-02-27T07:31:45.472Z,-2.68
2023-02-27T07:32:17.608Z,-2.68
2023-02-27T07:32:48.952Z,-2.68
2023-02-27T07:33:20.417Z,-2.68
2023-02-27T07:33:51.376Z,-2.68
2023-02-27T07:34:22.190Z,-2.77
2023-02-27T07:34:53.006Z,-2.71
2023-02-27T07:35:24.158Z,-2.74
2023-02-27T07:35:54.171Z,-2.90
2023-02-27T07:36:24.983Z,-2.74
2023-02-27T07:37:13.461Z,-2.90
2023-02-27T07:37:28.112Z,-2.90